Time;durP1;ratioP1;P1;durP2;ratioP2;P2;SDS_P1;SDS_P2;PMS_P1;PMS_P2;Temp;Humidity;BMP_temperature;BMP_pressure;BME280_temperature;BME280_humidity;BME280_pressure;Samples;Min_cycle;Max_cycle;Signal;HPM_P1;HPM_P2
2021/11/18 00:01:55;;;;;;;34.20;20.48;;;;;;;;;;5052421;28;20553;-82
2021/11/18 00:04:22;;;;;;;43.85;22.40;;;;;;;;;;5052539;28;20179;-80
2021/11/18 00:06:49;;;;;;;46.58;20.38;;;;;;;;;;5051031;28;20212;-80
2021/11/18 00:09:18;;;;;;;40.35;18.25;;;;;;;;;;5052109;28;20283;-81
2021/11/18 00:11:44;;;;;;;32.83;18.92;;;;;;;;;;5052734;28;20500;-80
2021/11/18 00:14:11;;;;;;;33.08;17.67;;;;;;;;;;5052479;28;20260;-80
2021/11/18 00:16:37;;;;;;;39.70;17.48;;;;;;;;;;5052235;28;20235;-79
2021/11/18 00:19:04;;;;;;;35.40;16.27;;;;;;;;;;5052244;28;20676;-81
2021/11/18 00:21:31;;;;;;;27.85;15.85;;;;;;;;;;5054656;28;20788;-81
2021/11/18 00:23:58;;;;;;;39.70;17.40;;;;;;;;;;5055992;28;20177;-79
2021/11/18 00:26:26;;;;;;;31.90;15.10;;;;;;;;;;5056228;28;20170;-81
2021/11/18 00:28:52;;;;;;;39.80;15.65;;;;;;;;;;5056031;28;20175;-79
2021/11/18 00:31:20;;;;;;;41.42;16.38;;;;;;;;;;5054191;28;20197;-80
2021/11/18 00:33:47;;;;;;;28.48;14.65;;;;;;;;;;5055889;28;20180;-80
2021/11/18 00:36:14;;;;;;;31.63;15.65;;;;;;;;;;5055865;28;20239;-81
2021/11/18 00:38:41;;;;;;;44.03;16.52;;;;;;;;;;5055757;28;20552;-80
2021/11/18 00:41:07;;;;;;;28.45;14.98;;;;;;;;;;5055262;28;20222;-79
2021/11/18 00:43:33;;;;;;;35.03;15.82;;;;;;;;;;5055694;28;20650;-80
2021/11/18 00:45:59;;;;;;;26.50;14.70;;;;;;;;;;5055777;28;20578;-80
2021/11/18 00:48:25;;;;;;;33.67;15.80;;;;;;;;;;5055629;28;20216;-79
2021/11/18 00:50:53;;;;;;;35.35;15.60;;;;;;;;;;5055085;28;20206;-81
2021/11/18 00:53:20;;;;;;;44.28;18.08;;;;;;;;;;5055255;28;20173;-80
2021/11/18 00:55:46;;;;;;;41.75;15.32;;;;;;;;;;5055515;28;20174;-81
2021/11/18 00:58:12;;;;;;;34.60;14.80;;;;;;;;;;5055418;28;20209;-78
2021/11/18 01:00:40;;;;;;;38.00;14.68;;;;;;;;;;5055007;28;20194;-79
2021/11/18 01:03:07;;;;;;;28.88;15.82;;;;;;;;;;5054060;28;20181;-80
2021/11/18 01:05:34;;;;;;;38.03;16.00;;;;;;;;;;5055179;28;20515;-80
2021/11/18 01:08:00;;;;;;;41.95;19.33;;;;;;;;;;5055379;28;20654;-81
2021/11/18 01:10:30;;;;;;;38.45;17.58;;;;;;;;;;5054864;28;20204;-81
2021/11/18 01:12:56;;;;;;;42.03;22.08;;;;;;;;;;5055253;28;20178;-81
2021/11/18 01:15:25;;;;;;;39.75;18.90;;;;;;;;;;5055350;28;20193;-81
2021/11/18 01:17:51;;;;;;;35.65;16.02;;;;;;;;;;5054954;28;20276;-80
2021/11/18 01:20:19;;;;;;;37.85;15.45;;;;;;;;;;5054820;28;20189;-80
2021/11/18 01:22:45;;;;;;;30.08;16.33;;;;;;;;;;5055165;28;20180;-81
2021/11/18 01:25:12;;;;;;;28.55;16.30;;;;;;;;;;5054959;28;20177;-79
2021/11/18 01:27:39;;;;;;;37.20;16.30;;;;;;;;;;5054919;28;20243;-79
2021/11/18 01:30:09;;;;;;;47.42;17.88;;;;;;;;;;5054774;28;20198;-78
2021/11/18 01:32:35;;;;;;;41.97;17.95;;;;;;;;;;5054564;28;20186;-79
2021/11/18 01:35:01;;;;;;;66.93;25.13;;;;;;;;;;5054786;28;20186;-78
2021/11/18 01:37:27;;;;;;;45.33;20.13;;;;;;;;;;5053236;28;20232;-81
2021/11/18 01:39:53;;;;;;;42.38;19.40;;;;;;;;;;5054408;28;20201;-81
2021/11/18 01:42:19;;;;;;;42.70;19.25;;;;;;;;;;5054683;28;20591;-79
2021/11/18 01:44:47;;;;;;;38.77;18.90;;;;;;;;;;5053456;28;20178;-81
2021/11/18 01:47:14;;;;;;;33.38;18.20;;;;;;;;;;5054498;28;20416;-79
2021/11/18 01:49:41;;;;;;;36.70;18.90;;;;;;;;;;5052673;28;20178;-79
2021/11/18 01:52:10;;;;;;;36.28;18.10;;;;;;;;;;5054449;28;20192;-78
2021/11/18 01:54:38;;;;;;;36.28;16.42;;;;;;;;;;5054418;28;20169;-79
2021/11/18 01:57:06;;;;;;;33.97;16.00;;;;;;;;;;5054300;28;20184;-80
2021/11/18 01:59:37;;;;;;;40.35;16.17;;;;;;;;;;5053804;28;20181;-81
2021/11/18 02:02:03;;;;;;;39.83;17.60;;;;;;;;;;5054075;28;20545;-79
2021/11/18 02:04:30;;;;;;;36.55;16.10;;;;;;;;;;5054064;28;20227;-81
2021/11/18 02:06:59;;;;;;;34.83;16.05;;;;;;;;;;5054164;28;20216;-79
2021/11/18 02:09:27;;;;;;;33.90;14.43;;;;;;;;;;5053778;28;20183;-78
2021/11/18 02:11:56;;;;;;;33.13;15.60;;;;;;;;;;5053861;28;20216;-78
2021/11/18 02:14:23;;;;;;;40.22;16.50;;;;;;;;;;5053969;28;20607;-80
2021/11/18 02:16:49;;;;;;;34.05;16.95;;;;;;;;;;5052506;28;20196;-79
2021/11/18 02:19:16;;;;;;;40.25;16.50;;;;;;;;;;5053545;28;20259;-81
2021/11/18 02:21:46;;;;;;;31.17;15.93;;;;;;;;;;5053686;28;20266;-78
2021/11/18 02:24:17;;;;;;;34.55;16.95;;;;;;;;;;5053641;28;20172;-80
2021/11/18 02:26:43;;;;;;;30.90;15.07;;;;;;;;;;5053823;28;20677;-78
2021/11/18 02:29:09;;;;;;;43.17;17.48;;;;;;;;;;5052719;28;20177;-81
2021/11/18 02:31:42;;;;;;;43.80;17.77;;;;;;;;;;5053647;28;20193;-80
2021/11/18 02:34:10;;;;;;;27.58;15.23;;;;;;;;;;5053861;28;20231;-80
2021/11/18 02:36:39;;;;;;;40.95;18.08;;;;;;;;;;5053768;28;20516;-80
2021/11/18 02:39:06;;;;;;;39.70;17.35;;;;;;;;;;5053375;28;20200;-80
2021/11/18 02:41:32;;;;;;;44.13;19.33;;;;;;;;;;5053207;28;20190;-81
2021/11/18 02:43:58;;;;;;;46.95;17.42;;;;;;;;;;5052945;28;20627;-81
2021/11/18 02:46:24;;;;;;;41.92;16.50;;;;;;;;;;5053590;28;20180;-81
2021/11/18 02:48:50;;;;;;;38.80;16.60;;;;;;;;;;5053393;28;20186;-81
2021/11/18 02:51:17;;;;;;;42.55;18.30;;;;;;;;;;5052989;28;20446;-81
2021/11/18 02:53:43;;;;;;;50.03;17.92;;;;;;;;;;5053324;28;20591;-80
2021/11/18 02:56:09;;;;;;;44.65;17.30;;;;;;;;;;5053225;28;20623;-79
2021/11/18 02:58:35;;;;;;;32.45;14.13;;;;;;;;;;5053152;28;20213;-80
2021/11/18 03:01:08;;;;;;;41.63;17.23;;;;;;;;;;5052797;28;20201;-81
2021/11/18 03:03:34;;;;;;;55.05;17.70;;;;;;;;;;5053039;28;20181;-79
2021/11/18 03:06:01;;;;;;;42.85;18.17;;;;;;;;;;5053118;28;20223;-79
2021/11/18 03:08:27;;;;;;;50.20;17.42;;;;;;;;;;5052938;28;20182;-80
2021/11/18 03:10:54;;;;;;;36.95;15.82;;;;;;;;;;5052604;28;20228;-80
2021/11/18 03:13:20;;;;;;;43.47;16.88;;;;;;;;;;5053193;28;20633;-81
2021/11/18 03:15:46;;;;;;;37.35;15.85;;;;;;;;;;5051815;28;20174;-81
2021/11/18 03:18:13;;;;;;;35.78;16.20;;;;;;;;;;5051419;28;20270;-82
2021/11/18 03:20:43;;;;;;;36.13;15.98;;;;;;;;;;5051218;28;20677;-81
2021/11/18 03:23:10;;;;;;;32.17;15.40;;;;;;;;;;5053089;28;20164;-82
2021/11/18 03:25:36;;;;;;;40.40;17.52;;;;;;;;;;5053118;28;20200;-80
2021/11/18 03:28:03;;;;;;;40.55;16.02;;;;;;;;;;5051553;28;20187;-80
2021/11/18 03:30:32;;;;;;;45.03;17.15;;;;;;;;;;5051087;28;20205;-82
2021/11/18 03:32:59;;;;;;;44.22;17.08;;;;;;;;;;5052877;28;20197;-82
2021/11/18 03:35:26;;;;;;;36.05;15.77;;;;;;;;;;5051651;28;20264;-82
2021/11/18 03:37:52;;;;;;;45.55;17.88;;;;;;;;;;5052735;28;20200;-81
2021/11/18 03:40:18;;;;;;;40.20;16.92;;;;;;;;;;5051118;28;20568;-81
2021/11/18 03:42:45;;;;;;;42.40;18.40;;;;;;;;;;5052627;28;20199;-81
2021/11/18 03:45:13;;;;;;;35.47;15.82;;;;;;;;;;5052848;28;20528;-82
2021/11/18 03:47:39;;;;;;;38.55;15.50;;;;;;;;;;5035297;28;20237;-80
2021/11/18 03:50:06;;;;;;;47.35;16.77;;;;;;;;;;5052316;28;20201;-81
2021/11/18 03:52:32;;;;;;;44.13;17.38;;;;;;;;;;5052764;28;20681;-82
2021/11/18 03:54:58;;;;;;;34.15;16.65;;;;;;;;;;5054680;28;20311;-82
2021/11/18 03:57:25;;;;;;;48.15;17.75;;;;;;;;;;5056587;28;20201;-82
2021/11/18 03:59:51;;;;;;;45.95;18.63;;;;;;;;;;5055234;28;20197;-82
2021/11/18 04:02:17;;;;;;;54.10;18.15;;;;;;;;;;5055039;28;20676;-81
2021/11/18 04:04:44;;;;;;;43.65;16.08;;;;;;;;;;5056334;28;20223;-82
2021/11/18 04:07:11;;;;;;;51.33;18.08;;;;;;;;;;5056332;28;20636;-81
2021/11/18 04:09:37;;;;;;;34.95;14.55;;;;;;;;;;5054710;28;20180;-82
2021/11/18 04:12:04;;;;;;;42.40;16.50;;;;;;;;;;5056378;28;20173;-82
2021/11/18 04:14:31;;;;;;;56.95;18.73;;;;;;;;;;5056152;28;20257;-81
2021/11/18 04:16:57;;;;;;;46.20;17.63;;;;;;;;;;5055835;28;20642;-82
2021/11/18 04:19:24;;;;;;;57.63;17.67;;;;;;;;;;5054894;28;20182;-81
2021/11/18 04:21:50;;;;;;;49.40;16.15;;;;;;;;;;5056184;28;20207;-82
2021/11/18 04:24:19;;;;;;;41.63;16.35;;;;;;;;;;5056160;28;20201;-81
2021/11/18 04:26:46;;;;;;;49.55;16.17;;;;;;;;;;5056084;28;20199;-81
2021/11/18 04:29:12;;;;;;;48.05;15.40;;;;;;;;;;5055562;28;20581;-81
2021/11/18 04:31:39;;;;;;;42.13;17.45;;;;;;;;;;5055927;28;20198;-82
2021/11/18 04:34:06;;;;;;;46.15;17.85;;;;;;;;;;5054671;28;20188;-81
2021/11/18 04:36:34;;;;;;;34.03;15.00;;;;;;;;;;5055916;28;20232;-82
2021/11/18 04:39:00;;;;;;;36.25;15.02;;;;;;;;;;5055718;28;20205;-82
2021/11/18 04:41:28;;;;;;;44.72;16.75;;;;;;;;;;5055672;28;20210;-82
2021/11/18 04:43:55;;;;;;;30.92;13.93;;;;;;;;;;5055881;28;20170;-81
2021/11/18 04:46:21;;;;;;;37.30;15.00;;;;;;;;;;5055848;28;20173;-82
2021/11/18 04:48:47;;;;;;;35.05;14.23;;;;;;;;;;5055736;28;20203;-80
2021/11/18 04:51:16;;;;;;;40.45;13.88;;;;;;;;;;5055256;28;20591;-82
2021/11/18 04:53:42;;;;;;;36.97;14.85;;;;;;;;;;5055665;28;20188;-81
2021/11/18 04:56:09;;;;;;;38.20;14.93;;;;;;;;;;5055507;28;20178;-81
2021/11/18 04:58:35;;;;;;;37.15;14.07;;;;;;;;;;5054107;28;20288;-81
2021/11/18 05:01:02;;;;;;;52.17;15.80;;;;;;;;;;5053761;28;20533;-81
2021/11/18 05:03:29;;;;;;;35.95;14.15;;;;;;;;;;5055342;28;20225;-81
2021/11/18 05:05:55;;;;;;;36.70;15.55;;;;;;;;;;5053506;28;20184;-82
2021/11/18 05:08:22;;;;;;;33.67;14.68;;;;;;;;;;5055358;28;20205;-83
2021/11/18 05:10:49;;;;;;;40.75;13.80;;;;;;;;;;5053920;28;20197;-81
2021/11/18 05:13:17;;;;;;;32.78;13.77;;;;;;;;;;5055106;28;20176;-83
2021/11/18 05:15:44;;;;;;;42.47;14.38;;;;;;;;;;5055101;28;20237;-82
2021/11/18 05:18:10;;;;;;;42.40;14.10;;;;;;;;;;5053700;28;20218;-81
2021/11/18 05:20:37;;;;;;;42.20;14.18;;;;;;;;;;5053476;28;20285;-81
2021/11/18 05:23:03;;;;;;;37.20;14.32;;;;;;;;;;5055078;28;20185;-81
2021/11/18 05:25:31;;;;;;;38.75;14.77;;;;;;;;;;5054992;28;20204;-81
2021/11/18 05:27:57;;;;;;;34.00;14.00;;;;;;;;;;5054982;28;20204;-81
2021/11/18 05:30:27;;;;;;;40.92;12.70;;;;;;;;;;5054785;28;20203;-80
2021/11/18 05:32:54;;;;;;;42.00;15.23;;;;;;;;;;5053458;28;20180;-81
2021/11/18 05:35:20;;;;;;;39.00;14.50;;;;;;;;;;5053736;28;20188;-81
2021/11/18 05:37:46;;;;;;;32.10;13.52;;;;;;;;;;5054684;28;20204;-81
2021/11/18 05:40:12;;;;;;;46.80;14.32;;;;;;;;;;5053015;28;20206;-82
2021/11/18 05:42:39;;;;;;;32.13;14.23;;;;;;;;;;5054610;28;20255;-81
2021/11/18 05:45:06;;;;;;;33.20;13.68;;;;;;;;;;5054522;28;20233;-81
2021/11/18 05:47:32;;;;;;;38.25;13.20;;;;;;;;;;5054557;28;20185;-80
2021/11/18 05:49:59;;;;;;;35.75;12.70;;;;;;;;;;5054389;28;20200;-81
2021/11/18 05:52:26;;;;;;;38.35;16.10;;;;;;;;;;5036814;28;20215;-82
2021/11/18 05:54:53;;;;;;;27.08;12.75;;;;;;;;;;5053250;28;20665;-81
2021/11/18 05:57:19;;;;;;;29.98;13.20;;;;;;;;;;5054387;28;20282;-81
2021/11/18 05:59:45;;;;;;;31.95;12.43;;;;;;;;;;5052585;28;20228;-81
2021/11/18 06:02:11;;;;;;;36.20;14.00;;;;;;;;;;5054395;28;20313;-81
2021/11/18 06:04:37;;;;;;;40.63;13.00;;;;;;;;;;5054347;28;20524;-81
2021/11/18 06:07:04;;;;;;;32.50;13.20;;;;;;;;;;5054353;28;20657;-81
2021/11/18 06:09:30;;;;;;;39.17;13.65;;;;;;;;;;5053731;28;20534;-80
2021/11/18 06:11:56;;;;;;;39.42;13.55;;;;;;;;;;5054076;28;20637;-81
2021/11/18 06:14:22;;;;;;;38.70;14.15;;;;;;;;;;5054051;28;20177;-80
2021/11/18 06:16:48;;;;;;;27.20;12.73;;;;;;;;;;5053954;28;20654;-82
2021/11/18 06:19:14;;;;;;;36.67;13.52;;;;;;;;;;5051736;28;20612;-81
2021/11/18 06:21:42;;;;;;;40.50;14.35;;;;;;;;;;5053902;28;20255;-82
2021/11/18 06:24:08;;;;;;;30.38;12.80;;;;;;;;;;5053875;28;20177;-81
2021/11/18 06:26:34;;;;;;;31.27;12.93;;;;;;;;;;5053755;28;20187;-81
2021/11/18 06:29:01;;;;;;;29.00;12.13;;;;;;;;;;5053760;28;20188;-80
2021/11/18 06:31:27;;;;;;;20.48;11.80;;;;;;;;;;5053522;28;20227;-82
2021/11/18 06:33:53;;;;;;;23.88;11.55;;;;;;;;;;5053636;28;20188;-81
2021/11/18 06:36:20;;;;;;;29.70;10.75;;;;;;;;;;5053621;28;20178;-81
2021/11/18 06:38:47;;;;;;;28.05;12.00;;;;;;;;;;5053596;28;20291;-81
2021/11/18 06:41:15;;;;;;;28.60;11.80;;;;;;;;;;5052128;28;20204;-81
2021/11/18 06:43:41;;;;;;;27.75;11.15;;;;;;;;;;5053894;28;20173;-79
2021/11/18 06:46:07;;;;;;;29.38;11.20;;;;;;;;;;5053739;28;20169;-81
2021/11/18 06:48:33;;;;;;;32.15;10.60;;;;;;;;;;5053512;28;20169;-80
2021/11/18 06:51:05;;;;;;;26.15;10.57;;;;;;;;;;5053227;28;20644;-80
2021/11/18 06:53:31;;;;;;;29.70;12.18;;;;;;;;;;5053640;28;20178;-81
2021/11/18 06:55:58;;;;;;;27.25;11.05;;;;;;;;;;5053513;28;20188;-81
2021/11/18 06:58:24;;;;;;;23.08;9.70;;;;;;;;;;5052041;28;20682;-81
2021/11/18 07:00:51;;;;;;;25.48;9.48;;;;;;;;;;5052812;28;20207;-81
2021/11/18 07:03:17;;;;;;;26.58;9.70;;;;;;;;;;5053253;28;20165;-81
2021/11/18 07:05:43;;;;;;;24.33;10.55;;;;;;;;;;5053234;28;20176;-81
2021/11/18 07:08:09;;;;;;;27.25;9.20;;;;;;;;;;5053152;28;20207;-81
2021/11/18 07:10:36;;;;;;;27.00;10.23;;;;;;;;;;5053031;28;20197;-81
2021/11/18 07:13:02;;;;;;;24.33;9.32;;;;;;;;;;5053212;28;20189;-81
2021/11/18 07:15:28;;;;;;;22.50;9.98;;;;;;;;;;5053191;28;20220;-80
2021/11/18 07:17:55;;;;;;;20.98;9.63;;;;;;;;;;5052996;28;20580;-81
2021/11/18 07:20:21;;;;;;;34.78;10.10;;;;;;;;;;5052692;28;20661;-81
2021/11/18 07:22:47;;;;;;;19.02;8.68;;;;;;;;;;5053122;28;20173;-81
2021/11/18 07:25:16;;;;;;;16.38;8.32;;;;;;;;;;5053053;28;20173;-81
2021/11/18 07:27:42;;;;;;;15.13;9.10;;;;;;;;;;5052988;28;20181;-80
2021/11/18 07:30:08;;;;;;;24.38;9.00;;;;;;;;;;5051148;28;20201;-81
2021/11/18 07:32:34;;;;;;;18.30;8.55;;;;;;;;;;5052989;28;20255;-81
2021/11/18 07:35:00;;;;;;;19.92;8.88;;;;;;;;;;5053328;28;20545;-81
2021/11/18 07:37:26;;;;;;;21.75;8.88;;;;;;;;;;5052909;28;20194;-81
2021/11/18 07:39:52;;;;;;;25.33;11.65;;;;;;;;;;5052472;28;20201;-82
2021/11/18 07:42:18;;;;;;;21.95;9.13;;;;;;;;;;5052932;28;20239;-80
2021/11/18 07:44:44;;;;;;;19.00;8.87;;;;;;;;;;5052212;28;20177;-81
2021/11/18 07:47:10;;;;;;;26.52;10.52;;;;;;;;;;5052802;28;20410;-80
2021/11/18 07:49:36;;;;;;;27.52;9.10;;;;;;;;;;5052326;28;20209;-80
2021/11/18 07:52:02;;;;;;;21.77;9.00;;;;;;;;;;5052749;28;20178;-80
2021/11/18 07:54:29;;;;;;;13.75;8.43;;;;;;;;;;5052670;28;20177;-80
2021/11/18 07:56:55;;;;;;;25.60;10.02;;;;;;;;;;5052820;28;20211;-80
2021/11/18 07:59:22;;;;;;;16.75;8.10;;;;;;;;;;5052378;28;20198;-81
2021/11/18 08:01:48;;;;;;;24.38;9.70;;;;;;;;;;5035104;28;20206;-80
2021/11/18 08:04:15;;;;;;;21.52;9.60;;;;;;;;;;5052803;28;20173;-81
2021/11/18 08:06:42;;;;;;;22.52;9.35;;;;;;;;;;5052619;28;20515;-80
2021/11/18 08:09:12;;;;;;;17.13;9.27;;;;;;;;;;5052630;28;20585;-81
2021/11/18 08:11:42;;;;;;;20.08;9.82;;;;;;;;;;5052679;28;20243;-81
2021/11/18 08:14:09;;;;;;;18.90;7.60;;;;;;;;;;5052690;28;20240;-80
2021/11/18 08:16:35;;;;;;;21.65;8.07;;;;;;;;;;5052400;28;20178;-80
2021/11/18 08:19:02;;;;;;;21.95;9.30;;;;;;;;;;5052505;28;20567;-81
2021/11/18 08:21:28;;;;;;;20.50;8.95;;;;;;;;;;5052224;28;20581;-80
2021/11/18 08:23:54;;;;;;;16.27;8.23;;;;;;;;;;5052505;28;20176;-80
2021/11/18 08:26:20;;;;;;;24.70;7.80;;;;;;;;;;5051354;28;20220;-81
2021/11/18 08:28:47;;;;;;;18.38;8.43;;;;;;;;;;5052394;28;20487;-80
2021/11/18 08:31:14;;;;;;;43.55;17.23;;;;;;;;;;5052066;28;20619;-81
2021/11/18 08:33:40;;;;;;;23.02;10.02;;;;;;;;;;5051212;28;20169;-81
2021/11/18 08:36:06;;;;;;;25.98;8.70;;;;;;;;;;5052405;28;20180;-80
2021/11/18 08:38:33;;;;;;;21.90;8.45;;;;;;;;;;5052354;28;20199;-80
2021/11/18 08:41:02;;;;;;;17.90;8.75;;;;;;;;;;5052055;28;20209;-81
2021/11/18 08:43:29;;;;;;;20.00;7.85;;;;;;;;;;5054731;28;20270;-79
2021/11/18 08:45:55;;;;;;;16.95;8.55;;;;;;;;;;5055924;28;20191;-81
2021/11/18 08:48:21;;;;;;;23.83;7.47;;;;;;;;;;5056169;28;20301;-81
2021/11/18 08:50:49;;;;;;;16.02;8.02;;;;;;;;;;5054255;28;20200;-81
2021/11/18 08:53:16;;;;;;;20.65;8.20;;;;;;;;;;5055876;28;20188;-80
2021/11/18 08:55:42;;;;;;;21.27;8.35;;;;;;;;;;5054537;28;20553;-80
2021/11/18 08:58:09;;;;;;;14.82;8.38;;;;;;;;;;5055655;28;20247;-80
2021/11/18 09:00:38;;;;;;;17.95;8.80;;;;;;;;;;5055234;28;20638;-80
2021/11/18 09:03:04;;;;;;;24.40;9.75;;;;;;;;;;5054327;28;20180;-81
2021/11/18 09:05:31;;;;;;;21.80;8.85;;;;;;;;;;5055482;28;20177;-81
2021/11/18 09:07:57;;;;;;;17.42;8.80;;;;;;;;;;5037559;28;20716;-81
2021/11/18 09:10:24;;;;;;;18.20;7.75;;;;;;;;;;5053702;28;20211;-81
2021/11/18 09:12:50;;;;;;;18.10;8.68;;;;;;;;;;5054157;28;20224;-80
2021/11/18 09:15:18;;;;;;;14.00;6.72;;;;;;;;;;5055209;28;20197;-81
2021/11/18 09:17:44;;;;;;;14.32;7.20;;;;;;;;;;5055028;28;20294;-81
2021/11/18 09:20:11;;;;;;;21.27;7.35;;;;;;;;;;5054851;28;20223;-81
2021/11/18 09:22:38;;;;;;;20.55;7.20;;;;;;;;;;5055216;28;20169;-81
2021/11/18 09:25:07;;;;;;;17.23;6.60;;;;;;;;;;5055117;28;20170;-81
2021/11/18 09:27:38;;;;;;;21.85;7.90;;;;;;;;;;5055015;28;20260;-80
2021/11/18 09:30:06;;;;;;;15.98;8.30;;;;;;;;;;5053423;28;20204;-81
2021/11/18 09:32:33;;;;;;;16.75;8.20;;;;;;;;;;5054992;28;20207;-80
2021/11/18 09:35:01;;;;;;;22.45;9.35;;;;;;;;;;5054950;28;20177;-81
2021/11/18 09:37:27;;;;;;;15.98;6.78;;;;;;;;;;5054746;28;20182;-81
2021/11/18 09:39:53;;;;;;;23.45;8.50;;;;;;;;;;5053274;28;20208;-81
2021/11/18 09:42:22;;;;;;;18.65;7.55;;;;;;;;;;5054856;28;20208;-80
2021/11/18 09:45:05;;;;;;;11.25;7.45;;;;;;;;;;5054708;28;20205;-81
2021/11/18 09:47:40;;;;;;;15.73;6.60;;;;;;;;;;5054724;28;20219;-80
2021/11/18 09:50:15;;;;;;;12.52;7.25;;;;;;;;;;5054296;28;20197;-80
2021/11/18 09:52:59;;;;;;;17.48;7.15;;;;;;;;;;5054389;28;20649;-81
2021/11/18 09:55:57;;;;;;;15.38;6.93;;;;;;;;;;5054493;28;20182;-81
2021/11/18 09:58:24;;;;;;;16.50;6.65;;;;;;;;;;5042548;28;20647;-79
2021/11/18 10:01:04;;;;;;;14.68;5.65;;;;;;;;;;5054107;28;20189;-80
2021/11/18 10:03:39;;;;;;;13.60;6.05;;;;;;;;;;5053200;28;20699;-80
2021/11/18 10:06:14;;;;;;;16.77;6.72;;;;;;;;;;5054398;28;20668;-80
2021/11/18 10:09:04;;;;;;;13.50;6.10;;;;;;;;;;5054405;28;20172;-79
2021/11/18 10:11:37;;;;;;;12.10;6.30;;;;;;;;;;5050814;28;20208;-81
2021/11/18 10:14:22;;;;;;;15.80;5.90;;;;;;;;;;5054361;28;20805;-81
2021/11/18 10:16:50;;;;;;;16.60;5.57;;;;;;;;;;5054036;28;20415;-80
2021/11/18 10:19:22;;;;;;;17.03;5.63;;;;;;;;;;5053923;28;20436;-80
2021/11/18 10:21:49;;;;;;;14.00;5.63;;;;;;;;;;5053954;28;20759;-80
2021/11/18 10:24:17;;;;;;;14.00;5.10;;;;;;;;;;5054045;28;20461;-79
2021/11/18 10:26:45;;;;;;;14.10;6.07;;;;;;;;;;5053885;28;20412;-80
2021/11/18 10:29:23;;;;;;;10.77;5.50;;;;;;;;;;5052298;28;20423;-81
2021/11/18 10:32:23;;;;;;;15.63;5.80;;;;;;;;;;5053699;28;20844;-80
2021/11/18 10:34:52;;;;;;;17.57;6.03;;;;;;;;;;5030976;28;20946;-80
2021/11/18 10:37:35;;;;;;;11.73;5.37;;;;;;;;;;5053923;28;20430;-81
2021/11/18 10:40:01;;;;;;;14.57;6.47;;;;;;;;;;5053241;28;20936;-81
2021/11/18 10:42:30;;;;;;;19.60;5.77;;;;;;;;;;5053714;28;20412;-81
2021/11/18 10:45:06;;;;;;;16.53;5.53;;;;;;;;;;5053637;28;20400;-80
2021/11/18 10:47:38;;;;;;;14.00;5.20;;;;;;;;;;5053643;28;20443;-81
2021/11/18 10:50:09;;;;;;;18.23;5.15;;;;;;;;;;5053201;28;20428;-82
2021/11/18 10:52:37;;;;;;;16.42;4.85;;;;;;;;;;5052446;28;20654;-80
2021/11/18 10:55:11;;;;;;;18.00;6.00;;;;;;;;;;5053476;28;20548;-80
2021/11/18 10:57:50;;;;;;;22.47;5.30;;;;;;;;;;5053503;28;20546;-81
2021/11/18 11:00:37;;;;;;;19.33;6.50;;;;;;;;;;5052923;28;20435;-79
2021/11/18 11:03:19;;;;;;;19.77;5.87;;;;;;;;;;5049440;28;20427;-79
2021/11/18 11:05:45;;;;;;;13.87;6.03;;;;;;;;;;5052932;28;20402;-82
2021/11/18 11:08:30;;;;;;;12.70;4.70;;;;;;;;;;5053256;28;20897;-82
2021/11/18 11:10:59;;;;;;;12.63;5.30;;;;;;;;;;5053158;28;20435;-81
2021/11/18 11:13:44;;;;;;;18.63;4.67;;;;;;;;;;5053212;28;20404;-81
2021/11/18 11:16:21;;;;;;;15.87;5.40;;;;;;;;;;5053111;28;20508;-81
2021/11/18 11:18:47;;;;;;;21.73;5.47;;;;;;;;;;5051770;28;20468;-79
2021/11/18 11:21:24;;;;;;;17.37;6.17;;;;;;;;;;5052723;28;20561;-79
2021/11/18 11:24:06;;;;;;;19.60;5.90;;;;;;;;;;5053036;28;20846;-81
2021/11/18 11:26:55;;;;;;;22.20;6.50;;;;;;;;;;5052904;28;20409;-80
2021/11/18 11:29:57;;;;;;;21.42;5.43;;;;;;;;;;5042323;28;20425;-80
2021/11/18 11:32:26;;;;;;;12.00;5.13;;;;;;;;;;5030815;28;20178;-80
2021/11/18 11:35:05;;;;;;;15.90;5.67;;;;;;;;;;5049262;28;20414;-81
2021/11/18 11:37:36;;;;;;;18.50;5.17;;;;;;;;;;5052741;28;20392;-78
2021/11/18 11:40:21;;;;;;;20.63;6.47;;;;;;;;;;5052274;28;20438;-83
2021/11/18 11:43:05;;;;;;;19.53;4.77;;;;;;;;;;5052852;28;20180;-82
2021/11/18 11:45:49;;;;;;;13.63;4.20;;;;;;;;;;5052015;28;20884;-81
2021/11/18 11:48:35;;;;;;;18.20;4.97;;;;;;;;;;5051538;28;20743;-81
2021/11/18 11:51:21;;;;;;;14.70;4.60;;;;;;;;;;5052461;28;20795;-80
2021/11/18 11:53:53;;;;;;;12.13;4.60;;;;;;;;;;5052817;28;20987;-82
2021/11/18 11:56:19;;;;;;;14.73;4.60;;;;;;;;;;5052586;28;20260;-80
2021/11/18 11:58:55;;;;;;;16.38;5.13;;;;;;;;;;5052609;28;20456;-81
2021/11/18 12:01:40;;;;;;;20.67;4.55;;;;;;;;;;5052113;28;20673;-83
2021/11/18 12:04:18;;;;;;;23.60;4.97;;;;;;;;;;5052529;28;20173;-80
2021/11/18 12:06:52;;;;;;;15.55;4.00;;;;;;;;;;5052669;28;20399;-79
2021/11/18 12:09:25;;;;;;;12.35;4.47;;;;;;;;;;5051208;28;20184;-81
2021/11/18 12:12:11;;;;;;;13.18;3.83;;;;;;;;;;5052582;28;20196;-83
2021/11/18 12:14:38;;;;;;;19.00;4.30;;;;;;;;;;5052445;28;20161;-82
2021/11/18 12:17:19;;;;;;;15.30;5.10;;;;;;;;;;5054437;28;20259;-82
2021/11/18 12:20:02;;;;;;;15.23;4.13;;;;;;;;;;5054561;28;20188;-82
2021/11/18 12:22:34;;;;;;;11.90;3.87;;;;;;;;;;5054862;28;20188;-83
2021/11/18 12:25:00;;;;;;;16.50;4.35;;;;;;;;;;5056327;28;20931;-82
2021/11/18 12:27:28;;;;;;;12.90;4.00;;;;;;;;;;5056369;28;20184;-82
2021/11/18 12:30:12;;;;;;;16.17;4.07;;;;;;;;;;5055839;28;20431;-82
2021/11/18 12:32:40;;;;;;;18.98;3.67;;;;;;;;;;5054858;28;20711;-82
2021/11/18 12:35:09;;;;;;;11.38;4.00;;;;;;;;;;5054867;28;20191;-81
2021/11/18 12:37:35;;;;;;;14.93;3.47;;;;;;;;;;5056245;28;20201;-82
2021/11/18 12:40:32;;;;;;;16.33;4.20;;;;;;;;;;5055433;28;20198;-81
2021/11/18 12:43:17;;;;;;;15.10;4.45;;;;;;;;;;5055869;28;20384;-81
2021/11/18 12:45:50;;;;;;;13.15;4.13;;;;;;;;;;5056002;28;20174;-82
2021/11/18 12:48:25;;;;;;;17.27;4.57;;;;;;;;;;5055774;28;20169;-82
2021/11/18 12:51:03;;;;;;;14.35;3.53;;;;;;;;;;5055189;28;20193;-81
2021/11/18 12:53:38;;;;;;;9.60;4.43;;;;;;;;;;5055692;28;20169;-82
2021/11/18 12:56:10;;;;;;;15.98;2.97;;;;;;;;;;5055736;28;20230;-82
2021/11/18 12:58:44;;;;;;;14.88;3.53;;;;;;;;;;5055583;28;20197;-83
2021/11/18 13:01:23;;;;;;;13.40;3.67;;;;;;;;;;5054076;28;20201;-82
2021/11/18 13:03:49;;;;;;;15.15;4.15;;;;;;;;;;5055683;28;20173;-82
2021/11/18 13:06:30;;;;;;;22.15;4.93;;;;;;;;;;5055581;28;20169;-81
2021/11/18 13:09:01;;;;;;;10.75;3.72;;;;;;;;;;5055472;28;20181;-82
2021/11/18 13:11:27;;;;;;;9.43;3.15;;;;;;;;;;5053865;28;20202;-83
2021/11/18 13:14:12;;;;;;;16.40;4.00;;;;;;;;;;5055334;28;20201;-83
2021/11/18 13:16:47;;;;;;;15.38;3.70;;;;;;;;;;5055124;28;20185;-81
2021/11/18 13:19:23;;;;;;;12.32;4.25;;;;;;;;;;5054843;28;20576;-82
2021/11/18 13:21:52;;;;;;;17.08;4.55;;;;;;;;;;5055463;28;20192;-82
2021/11/18 13:24:31;;;;;;;20.75;4.20;;;;;;;;;;5055339;28;20173;-82
2021/11/18 13:26:57;;;;;;;19.40;3.42;;;;;;;;;;5054554;28;20252;-81
2021/11/18 13:29:25;;;;;;;18.42;3.42;;;;;;;;;;5053425;28;20278;-81
2021/11/18 13:31:51;;;;;;;14.82;3.55;;;;;;;;;;5054963;28;20232;-81
2021/11/18 13:34:23;;;;;;;9.73;3.50;;;;;;;;;;5055121;28;20642;-82
2021/11/18 13:36:58;;;;;;;18.55;3.58;;;;;;;;;;5054964;28;20408;-82
2021/11/18 13:39:31;;;;;;;12.65;3.42;;;;;;;;;;5054359;28;20250;-81
2021/11/18 13:41:57;;;;;;;11.68;3.80;;;;;;;;;;5054956;28;20201;-82
2021/11/18 13:44:35;;;;;;;12.40;3.65;;;;;;;;;;5053524;28;20178;-82
2021/11/18 13:47:04;;;;;;;9.73;3.72;;;;;;;;;;5054966;28;20534;-81
2021/11/18 13:49:32;;;;;;;14.32;4.90;;;;;;;;;;5053217;28;20190;-82
2021/11/18 13:52:07;;;;;;;15.02;3.88;;;;;;;;;;5054653;28;20240;-81
2021/11/18 13:54:38;;;;;;;10.57;4.10;;;;;;;;;;5053311;28;20242;-82
2021/11/18 13:57:04;;;;;;;16.48;3.40;;;;;;;;;;5053259;28;20177;-81
2021/11/18 13:59:39;;;;;;;12.27;3.00;;;;;;;;;;5052812;28;20258;-81
2021/11/18 14:02:09;;;;;;;10.15;3.30;;;;;;;;;;5054477;28;20495;-81
2021/11/18 14:04:37;;;;;;;17.90;4.15;;;;;;;;;;5054409;28;20692;-82
2021/11/18 14:07:06;;;;;;;15.70;3.90;;;;;;;;;;5054367;28;20252;-82
2021/11/18 14:09:37;;;;;;;11.60;3.58;;;;;;;;;;5053782;28;20265;-80
2021/11/18 14:12:18;;;;;;;17.02;3.88;;;;;;;;;;5054193;28;20173;-82
2021/11/18 14:14:51;;;;;;;15.63;3.90;;;;;;;;;;5054152;28;20204;-81
2021/11/18 14:17:23;;;;;;;15.15;3.72;;;;;;;;;;5053947;28;20197;-82
2021/11/18 14:19:54;;;;;;;15.75;3.60;;;;;;;;;;5053746;28;20208;-81
2021/11/18 14:22:24;;;;;;;8.35;3.58;;;;;;;;;;5054125;28;20165;-81
2021/11/18 14:24:52;;;;;;;10.68;3.95;;;;;;;;;;5053932;28;20174;-81
2021/11/18 14:27:21;;;;;;;13.25;3.03;;;;;;;;;;5053977;28;20173;-82
2021/11/18 14:29:53;;;;;;;14.80;3.67;;;;;;;;;;5053460;28;20666;-82
2021/11/18 14:32:29;;;;;;;16.83;4.82;;;;;;;;;;5053985;28;20205;-82
2021/11/18 14:35:04;;;;;;;16.13;3.50;;;;;;;;;;5054058;28;20636;-81
2021/11/18 14:37:42;;;;;;;12.23;3.38;;;;;;;;;;5052712;28;20525;-81